sensor_id;sensor_type;location;lat;lon;timestamp;temperature;humidity
78902;DHT22;68290;44.716;37.756;2023-03-03T12:53:48;19.11;49.06
78902;DHT22;68290;44.716;37.756;2023-03-03T12:56:34;19.11;48.61
78902;DHT22;68290;44.716;37.756;2023-03-03T13:04:47;19.02;48.44
78902;DHT22;68290;44.716;37.756;2023-03-03T13:05:32;19.03;48.38
78902;DHT22;68290;44.716;37.756;2023-03-03T13:07:03;19.04;48.59
78902;DHT22;68290;44.716;37.756;2023-03-03T13:12:29;19.03;48.31
78902;DHT22;68290;44.716;37.756;2023-03-03T13:15:14;19.03;48.31
78902;DHT22;68290;44.716;37.756;2023-03-03T13:16:41;19.03;48.27
78902;DHT22;68290;44.716;37.756;2023-03-03T13:19:02;19.02;48.22
78902;DHT22;68290;44.716;37.756;2023-03-03T13:22:16;19.03;48.24
78902;DHT22;68290;44.716;37.756;2023-03-03T13:24:32;19.04;48.28
78902;DHT22;68290;44.716;37.756;2023-03-03T13:25:57;19.06;48.26
78902;DHT22;68290;44.716;37.756;2023-03-03T13:27:19;19.03;48.20
78902;DHT22;68290;44.716;37.756;2023-03-03T13:28:33;19.07;48.21
78902;DHT22;68290;44.716;37.756;2023-03-03T13:29:58;19.07;48.14
78902;DHT22;68290;44.716;37.756;2023-03-03T13:31:50;19.07;48.10
78902;DHT22;68290;44.716;37.756;2023-03-03T13:34:22;19.07;48.07
78902;DHT22;68290;44.716;37.756;2023-03-03T13:35:43;19.09;48.15
78902;DHT22;68290;44.716;37.756;2023-03-03T13:37:18;19.06;48.13
78902;DHT22;68290;44.716;37.756;2023-03-03T13:38:30;19.09;48.13
78902;DHT22;68290;44.716;37.756;2023-03-03T13:39:37;19.10;48.06
78902;DHT22;68290;44.716;37.756;2023-03-03T13:40:47;19.14;48.14
78902;DHT22;68290;44.716;37.756;2023-03-03T13:41:58;19.14;48.07
78902;DHT22;68290;44.716;37.756;2023-03-03T13:43:03;19.13;48.13
78902;DHT22;68290;44.716;37.756;2023-03-03T13:44:17;19.14;48.09
78902;DHT22;68290;44.716;37.756;2023-03-03T13:45:33;19.14;47.98
78902;DHT22;68290;44.716;37.756;2023-03-03T13:46:55;19.16;47.95
78902;DHT22;68290;44.716;37.756;2023-03-03T13:49:59;19.14;47.98
78902;DHT22;68290;44.716;37.756;2023-03-03T13:52:22;19.16;48.02
78902;DHT22;68290;44.716;37.756;2023-03-03T13:54:55;19.14;47.94
78902;DHT22;68290;44.716;37.756;2023-03-03T13:59:56;19.14;47.87
78902;DHT22;68290;44.716;37.756;2023-03-03T14:05:14;19.16;47.84
78902;DHT22;68290;44.716;37.756;2023-03-03T14:06:21;19.19;47.81
78902;DHT22;68290;44.716;37.756;2023-03-03T14:07:36;19.21;47.81
78902;DHT22;68290;44.716;37.756;2023-03-03T14:14:16;19.16;47.71
78902;DHT22;68290;44.716;37.756;2023-03-03T14:15:22;19.14;47.73
78902;DHT22;68290;44.716;37.756;2023-03-03T14:16:42;19.13;47.65
78902;DHT22;68290;44.716;37.756;2023-03-03T14:19:16;19.10;47.67
78902;DHT22;68290;44.716;37.756;2023-03-03T14:20:22;19.10;47.68
78902;DHT22;68290;44.716;37.756;2023-03-03T14:21:34;19.13;47.66
78902;DHT22;68290;44.716;37.756;2023-03-03T14:22:55;19.10;47.69
78902;DHT22;68290;44.716;37.756;2023-03-03T14:24:20;19.06;47.63
78902;DHT22;68290;44.716;37.756;2023-03-03T14:25:23;19.06;47.72
78902;DHT22;68290;44.716;37.756;2023-03-03T14:26:24;19.04;47.71
78902;DHT22;68290;44.716;37.756;2023-03-03T14:27:34;19.02;47.71
78902;DHT22;68290;44.716;37.756;2023-03-03T14:28:46;18.99;47.72
78902;DHT22;68290;44.716;37.756;2023-03-03T14:29:48;19.03;47.75
78902;DHT22;68290;44.716;37.756;2023-03-03T14:30:52;19.03;47.71
78902;DHT22;68290;44.716;37.756;2023-03-03T14:32:00;18.99;47.79
78902;DHT22;68290;44.716;37.756;2023-03-03T14:33:18;18.98;47.76
78902;DHT22;68290;44.716;37.756;2023-03-03T14:35:29;18.98;47.77
78902;DHT22;68290;44.716;37.756;2023-03-03T14:36:37;18.96;47.76
78902;DHT22;68290;44.716;37.756;2023-03-03T14:37:43;18.96;47.77
78902;DHT22;68290;44.716;37.756;2023-03-03T14:38:47;18.92;47.84
78902;DHT22;68290;44.716;37.756;2023-03-03T14:41:13;19.00;48.05
78902;DHT22;68290;44.716;37.756;2023-03-03T14:42:37;18.98;48.08
78902;DHT22;68290;44.716;37.756;2023-03-03T14:44:00;19.00;48.07
78902;DHT22;68290;44.716;37.756;2023-03-03T14:45:18;19.03;48.03
78902;DHT22;68290;44.716;37.756;2023-03-03T14:47:29;19.07;48.05
78902;DHT22;68290;44.716;37.756;2023-03-03T14:48:31;19.10;47.96
78902;DHT22;68290;44.716;37.756;2023-03-03T14:49:35;19.11;47.90
78902;DHT22;68290;44.716;37.756;2023-03-03T14:50:51;19.11;47.76
78902;DHT22;68290;44.716;37.756;2023-03-03T14:52:09;19.16;47.72
78902;DHT22;68290;44.716;37.756;2023-03-03T14:53:29;19.14;47.76
78902;DHT22;68290;44.716;37.756;2023-03-03T14:54:37;19.13;47.64
78902;DHT22;68290;44.716;37.756;2023-03-03T14:55:41;19.17;47.81
78902;DHT22;68290;44.716;37.756;2023-03-03T14:57:58;19.14;47.65
78902;DHT22;68290;44.716;37.756;2023-03-03T15:01:34;19.16;47.62
78902;DHT22;68290;44.716;37.756;2023-03-03T15:02:41;19.16;47.49
78902;DHT22;68290;44.716;37.756;2023-03-03T15:03:48;19.14;47.53
78902;DHT22;68290;44.716;37.756;2023-03-03T15:05:28;19.14;47.56
78902;DHT22;68290;44.716;37.756;2023-03-03T15:06:52;19.16;47.50
78902;DHT22;68290;44.716;37.756;2023-03-03T15:07:57;19.14;47.44
78902;DHT22;68290;44.716;37.756;2023-03-03T15:10:35;19.13;47.43
78902;DHT22;68290;44.716;37.756;2023-03-03T15:11:36;19.13;47.46
78902;DHT22;68290;44.716;37.756;2023-03-03T15:12:39;19.13;47.42
78902;DHT22;68290;44.716;37.756;2023-03-03T15:13:41;19.13;47.42
78902;DHT22;68290;44.716;37.756;2023-03-03T15:14:45;19.16;47.50
78902;DHT22;68290;44.716;37.756;2023-03-03T15:17:27;19.13;47.36
78902;DHT22;68290;44.716;37.756;2023-03-03T15:18:31;19.13;47.30
78902;DHT22;68290;44.716;37.756;2023-03-03T15:19:43;19.11;47.38
78902;DHT22;68290;44.716;37.756;2023-03-03T15:22:21;19.11;47.42
78902;DHT22;68290;44.716;37.756;2023-03-03T15:25:03;19.11;47.48
78902;DHT22;68290;44.716;37.756;2023-03-03T15:30:52;19.13;47.23
78902;DHT22;68290;44.716;37.756;2023-03-03T15:32:14;19.09;47.23
78902;DHT22;68290;44.716;37.756;2023-03-03T15:34:56;19.09;47.28
78902;DHT22;68290;44.716;37.756;2023-03-03T15:36:27;19.09;47.27
78902;DHT22;68290;44.716;37.756;2023-03-03T15:37:41;19.10;47.28
78902;DHT22;68290;44.716;37.756;2023-03-03T15:39:40;19.10;47.25
78902;DHT22;68290;44.716;37.756;2023-03-03T15:40:58;19.10;47.27
78902;DHT22;68290;44.716;37.756;2023-03-03T15:42:14;19.09;47.17
78902;DHT22;68290;44.716;37.756;2023-03-03T15:43:27;19.09;47.18
78902;DHT22;68290;44.716;37.756;2023-03-03T15:44:53;19.06;47.21
78902;DHT22;68290;44.716;37.756;2023-03-03T15:46:08;19.07;47.08
78902;DHT22;68290;44.716;37.756;2023-03-03T15:47:23;19.09;47.10
78902;DHT22;68290;44.716;37.756;2023-03-03T15:51:44;19.10;47.07
78902;DHT22;68290;44.716;37.756;2023-03-03T15:52:59;19.07;47.11
78902;DHT22;68290;44.716;37.756;2023-03-03T15:55:53;19.07;47.03
78902;DHT22;68290;44.716;37.756;2023-03-03T15:57:04;19.10;47.02
78902;DHT22;68290;44.716;37.756;2023-03-03T16:01:34;19.04;46.99
78902;DHT22;68290;44.716;37.756;2023-03-03T16:02:55;19.06;46.94
78902;DHT22;68290;44.716;37.756;2023-03-03T16:04:01;19.06;46.95
78902;DHT22;68290;44.716;37.756;2023-03-03T16:05:15;19.06;46.91
78902;DHT22;68290;44.716;37.756;2023-03-03T16:07:44;19.03;46.80
78902;DHT22;68290;44.716;37.756;2023-03-03T16:11:53;19.02;46.99
78902;DHT22;68290;44.716;37.756;2023-03-03T16:13:10;19.03;46.92
78902;DHT22;68290;44.716;37.756;2023-03-03T16:20:02;18.95;46.62
78902;DHT22;68290;44.716;37.756;2023-03-03T16:22:55;18.89;46.78
78902;DHT22;68290;44.716;37.756;2023-03-03T16:24:52;18.86;46.84
78902;DHT22;68290;44.716;37.756;2023-03-03T16:25:33;18.85;46.88
78902;DHT22;68290;44.716;37.756;2023-03-03T16:28:03;18.82;47.08
78902;DHT22;68290;44.716;37.756;2023-03-03T16:30:35;18.84;47.22
78902;DHT22;68290;44.716;37.756;2023-03-03T16:31:54;18.82;47.14
78902;DHT22;68290;44.716;37.756;2023-03-03T16:37:35;18.88;47.09
78902;DHT22;68290;44.716;37.756;2023-03-03T16:39:09;18.88;47.20
78902;DHT22;68290;44.716;37.756;2023-03-03T16:40:28;18.84;47.18
78902;DHT22;68290;44.716;37.756;2023-03-03T16:48:41;18.81;47.16
78902;DHT22;68290;44.716;37.756;2023-03-03T16:53:00;18.76;47.24
78902;DHT22;68290;44.716;37.756;2023-03-03T16:54:02;18.78;47.22
78902;DHT22;68290;44.716;37.756;2023-03-03T16:55:16;18.76;47.28
78902;DHT22;68290;44.716;37.756;2023-03-03T16:57:49;18.78;47.34
78902;DHT22;68290;44.716;37.756;2023-03-03T17:04:09;18.75;47.36
78902;DHT22;68290;44.716;37.756;2023-03-03T17:07:48;18.75;47.41
78902;DHT22;68290;44.716;37.756;2023-03-03T17:10:31;18.75;47.35
78902;DHT22;68290;44.716;37.756;2023-03-03T17:11:53;18.71;47.38
78902;DHT22;68290;44.716;37.756;2023-03-03T17:14:43;18.73;47.37
78902;DHT22;68290;44.716;37.756;2023-03-03T17:16:08;18.73;47.37
78902;DHT22;68290;44.716;37.756;2023-03-03T17:19:07;18.71;47.37
78902;DHT22;68290;44.716;37.756;2023-03-03T17:20:48;18.68;47.34
78902;DHT22;68290;44.716;37.756;2023-03-03T17:23:26;18.69;47.37
78902;DHT22;68290;44.716;37.756;2023-03-03T17:25:24;18.69;47.44
78902;DHT22;68290;44.716;37.756;2023-03-03T17:32:22;18.69;47.34
78902;DHT22;68290;44.716;37.756;2023-03-03T17:40:19;18.64;47.24
78902;DHT22;68290;44.716;37.756;2023-03-03T17:43:14;18.65;47.43
78902;DHT22;68290;44.716;37.756;2023-03-03T17:44:39;18.65;47.59
78902;DHT22;68290;44.716;37.756;2023-03-03T17:45:45;18.69;47.56
78902;DHT22;68290;44.716;37.756;2023-03-03T17:46:59;18.71;47.49
78902;DHT22;68290;44.716;37.756;2023-03-03T17:52:45;18.76;47.49
78902;DHT22;68290;44.716;37.756;2023-03-03T17:58:33;18.78;47.47
78902;DHT22;68290;44.716;37.756;2023-03-03T17:59:49;18.78;47.47
78902;DHT22;68290;44.716;37.756;2023-03-03T18:05:37;18.82;47.53
78902;DHT22;68290;44.716;37.756;2023-03-03T18:08:53;18.82;47.60
78902;DHT22;68290;44.716;37.756;2023-03-03T18:11:44;18.81;47.53
78902;DHT22;68290;44.716;37.756;2023-03-03T18:12:56;18.82;47.53
78902;DHT22;68290;44.716;37.756;2023-03-03T18:15:51;18.79;47.50
78902;DHT22;68290;44.716;37.756;2023-03-03T18:22:50;18.75;47.55
78902;DHT22;68290;44.716;37.756;2023-03-03T18:24:14;18.69;47.60
78902;DHT22;68290;44.716;37.756;2023-03-03T18:25:52;18.71;47.55
78902;DHT22;68290;44.716;37.756;2023-03-03T18:29:04;18.68;47.53
78902;DHT22;68290;44.716;37.756;2023-03-03T18:31:58;18.67;47.48
78902;DHT22;68290;44.716;37.756;2023-03-03T18:33:07;18.65;47.49
78902;DHT22;68290;44.716;37.756;2023-03-03T18:35:35;18.64;47.47
78902;DHT22;68290;44.716;37.756;2023-03-03T18:37:55;18.61;47.44
78902;DHT22;68290;44.716;37.756;2023-03-03T18:38:58;18.61;47.45
78902;DHT22;68290;44.716;37.756;2023-03-03T18:41:03;18.62;47.46
78902;DHT22;68290;44.716;37.756;2023-03-03T18:44:41;18.57;47.37
78902;DHT22;68290;44.716;37.756;2023-03-03T18:46:46;18.61;47.61
78902;DHT22;68290;44.716;37.756;2023-03-03T18:49:09;18.62;47.62
78902;DHT22;68290;44.716;37.756;2023-03-03T18:50:41;18.65;47.67
78902;DHT22;68290;44.716;37.756;2023-03-03T18:53:09;18.69;47.76
78902;DHT22;68290;44.716;37.756;2023-03-03T18:55:23;18.78;47.69
78902;DHT22;68290;44.716;37.756;2023-03-03T18:56:44;18.76;47.70
78902;DHT22;68290;44.716;37.756;2023-03-03T19:00:43;18.78;47.55
78902;DHT22;68290;44.716;37.756;2023-03-03T19:01:47;18.75;47.58
78902;DHT22;68290;44.716;37.756;2023-03-03T19:02:53;18.76;47.58
78902;DHT22;68290;44.716;37.756;2023-03-03T19:04:02;18.73;47.53
78902;DHT22;68290;44.716;37.756;2023-03-03T19:08:01;18.72;47.68
78902;DHT22;68290;44.716;37.756;2023-03-03T19:09:05;18.73;47.59
78902;DHT22;68290;44.716;37.756;2023-03-03T19:11:42;18.73;47.54
78902;DHT22;68290;44.716;37.756;2023-03-03T19:12:53;18.69;47.56
78902;DHT22;68290;44.716;37.756;2023-03-03T19:16:31;18.69;47.43
78902;DHT22;68290;44.716;37.756;2023-03-03T19:20:14;18.67;47.44
78902;DHT22;68290;44.716;37.756;2023-03-03T19:21:21;18.67;47.45
78902;DHT22;68290;44.716;37.756;2023-03-03T19:22:28;18.65;47.43
78902;DHT22;68290;44.716;37.756;2023-03-03T19:25:15;18.64;47.39
78902;DHT22;68290;44.716;37.756;2023-03-03T19:26:18;18.64;47.39
78902;DHT22;68290;44.716;37.756;2023-03-03T19:27:31;18.67;47.41
78902;DHT22;68290;44.716;37.756;2023-03-03T19:28:39;18.64;47.43
78902;DHT22;68290;44.716;37.756;2023-03-03T19:30:57;18.64;47.42
78902;DHT22;68290;44.716;37.756;2023-03-03T19:34:36;18.68;47.37
78902;DHT22;68290;44.716;37.756;2023-03-03T19:36:00;18.69;47.59
78902;DHT22;68290;44.716;37.756;2023-03-03T19:40:35;18.68;47.41
78902;DHT22;68290;44.716;37.756;2023-03-03T19:43:14;18.65;47.40
78902;DHT22;68290;44.716;37.756;2023-03-03T19:44:56;18.69;47.33
78902;DHT22;68290;44.716;37.756;2023-03-03T19:47:57;18.71;47.33
78902;DHT22;68290;44.716;37.756;2023-03-03T19:49:26;18.69;47.34
78902;DHT22;68290;44.716;37.756;2023-03-03T19:50:42;18.71;47.33
78902;DHT22;68290;44.716;37.756;2023-03-03T19:53:15;18.71;47.36
78902;DHT22;68290;44.716;37.756;2023-03-03T19:54:59;18.69;47.40
78902;DHT22;68290;44.716;37.756;2023-03-03T19:56:23;18.71;47.39
78902;DHT22;68290;44.716;37.756;2023-03-03T20:00:40;18.71;47.52
78902;DHT22;68290;44.716;37.756;2023-03-03T20:02:01;18.72;47.45
78902;DHT22;68290;44.716;37.756;2023-03-03T20:03:29;18.75;47.45
78902;DHT22;68290;44.716;37.756;2023-03-03T20:06:12;18.72;47.38
78902;DHT22;68290;44.716;37.756;2023-03-03T20:07:37;18.72;47.31
78902;DHT22;68290;44.716;37.756;2023-03-03T20:09:16;18.69;47.34
78902;DHT22;68290;44.716;37.756;2023-03-03T20:10:33;18.68;47.44
78902;DHT22;68290;44.716;37.756;2023-03-03T20:11:57;18.67;47.42
78902;DHT22;68290;44.716;37.756;2023-03-03T20:14:51;18.65;47.46
78902;DHT22;68290;44.716;37.756;2023-03-03T20:22:12;18.73;47.58
78902;DHT22;68290;44.716;37.756;2023-03-03T20:23:33;18.72;47.68
78902;DHT22;68290;44.716;37.756;2023-03-03T20:24:40;18.72;47.66
78902;DHT22;68290;44.716;37.756;2023-03-03T20:27:13;18.72;47.60
78902;DHT22;68290;44.716;37.756;2023-03-03T20:31:42;18.72;47.61
78902;DHT22;68290;44.716;37.756;2023-03-03T20:34:39;18.72;47.57
78902;DHT22;68290;44.716;37.756;2023-03-03T20:37:05;18.72;47.62
78902;DHT22;68290;44.716;37.756;2023-03-03T20:47:37;18.61;47.74
78902;DHT22;68290;44.716;37.756;2023-03-03T20:49:08;18.62;47.71
78902;DHT22;68290;44.716;37.756;2023-03-03T20:51:26;18.60;47.79
78902;DHT22;68290;44.716;37.756;2023-03-03T20:54:08;18.60;47.72
78902;DHT22;68290;44.716;37.756;2023-03-03T20:55:21;18.60;47.71
78902;DHT22;68290;44.716;37.756;2023-03-03T20:56:52;18.58;47.67
78902;DHT22;68290;44.716;37.756;2023-03-03T20:58:17;18.57;47.69
78902;DHT22;68290;44.716;37.756;2023-03-03T20:59:29;18.57;47.71
78902;DHT22;68290;44.716;37.756;2023-03-03T21:00:59;18.58;47.71
78902;DHT22;68290;44.716;37.756;2023-03-03T21:03:33;18.54;47.72
78902;DHT22;68290;44.716;37.756;2023-03-03T21:04:35;18.54;47.72
78902;DHT22;68290;44.716;37.756;2023-03-03T21:06:08;18.54;47.75
78902;DHT22;68290;44.716;37.756;2023-03-03T21:07:24;18.54;47.73
78902;DHT22;68290;44.716;37.756;2023-03-03T21:08:52;18.54;47.73
78902;DHT22;68290;44.716;37.756;2023-03-03T21:10:17;18.54;47.77
78902;DHT22;68290;44.716;37.756;2023-03-03T21:12:31;18.52;47.73
78902;DHT22;68290;44.716;37.756;2023-03-03T21:14:40;18.54;47.67
78902;DHT22;68290;44.716;37.756;2023-03-03T21:15:41;18.52;47.61
78902;DHT22;68290;44.716;37.756;2023-03-03T21:16:43;18.52;47.62
78902;DHT22;68290;44.716;37.756;2023-03-03T21:17:44;18.52;47.63
78902;DHT22;68290;44.716;37.756;2023-03-03T21:20:30;18.52;47.61
78902;DHT22;68290;44.716;37.756;2023-03-03T21:21:37;18.51;47.66
78902;DHT22;68290;44.716;37.756;2023-03-03T21:22:39;18.52;47.63
78902;DHT22;68290;44.716;37.756;2023-03-03T21:23:40;18.51;47.64
78902;DHT22;68290;44.716;37.756;2023-03-03T21:24:55;18.50;47.65
78902;DHT22;68290;44.716;37.756;2023-03-03T21:25:58;18.50;47.64
78902;DHT22;68290;44.716;37.756;2023-03-03T21:27:00;18.50;47.59
78902;DHT22;68290;44.716;37.756;2023-03-03T21:28:25;18.51;47.57
78902;DHT22;68290;44.716;37.756;2023-03-03T21:29:32;18.51;47.56
78902;DHT22;68290;44.716;37.756;2023-03-03T21:30:33;18.51;47.56
78902;DHT22;68290;44.716;37.756;2023-03-03T21:31:46;18.51;47.56
78902;DHT22;68290;44.716;37.756;2023-03-03T21:32:48;18.51;47.55
78902;DHT22;68290;44.716;37.756;2023-03-03T21:33:51;18.51;47.54
78902;DHT22;68290;44.716;37.756;2023-03-03T21:35:04;18.51;47.49
78902;DHT22;68290;44.716;37.756;2023-03-03T21:36:05;18.50;47.51
78902;DHT22;68290;44.716;37.756;2023-03-03T21:37:12;18.51;47.47
78902;DHT22;68290;44.716;37.756;2023-03-03T21:38:31;18.48;47.57
78902;DHT22;68290;44.716;37.756;2023-03-03T21:39:38;18.50;47.54
78902;DHT22;68290;44.716;37.756;2023-03-03T21:40:40;18.47;47.51
78902;DHT22;68290;44.716;37.756;2023-03-03T21:42:54;18.48;47.49
78902;DHT22;68290;44.716;37.756;2023-03-03T21:43:55;18.50;47.49
78902;DHT22;68290;44.716;37.756;2023-03-03T21:44:57;18.51;47.49
78902;DHT22;68290;44.716;37.756;2023-03-03T21:46:09;18.50;47.50
78902;DHT22;68290;44.716;37.756;2023-03-03T21:47:13;18.47;47.49
78902;DHT22;68290;44.716;37.756;2023-03-03T21:48:14;18.47;47.52
78902;DHT22;68290;44.716;37.756;2023-03-03T21:49:16;18.48;47.50
78902;DHT22;68290;44.716;37.756;2023-03-03T21:50:17;18.48;47.40
78902;DHT22;68290;44.716;37.756;2023-03-03T21:51:21;18.50;47.42
78902;DHT22;68290;44.716;37.756;2023-03-03T21:52:24;18.48;47.43
78902;DHT22;68290;44.716;37.756;2023-03-03T21:53:25;18.47;47.43
78902;DHT22;68290;44.716;37.756;2023-03-03T21:54:29;18.45;47.41
78902;DHT22;68290;44.716;37.756;2023-03-03T21:55:30;18.48;47.47
78902;DHT22;68290;44.716;37.756;2023-03-03T21:56:31;18.48;47.45
78902;DHT22;68290;44.716;37.756;2023-03-03T21:57:35;18.47;47.45
78902;DHT22;68290;44.716;37.756;2023-03-03T21:58:36;18.47;47.46
78902;DHT22;68290;44.716;37.756;2023-03-03T21:59:38;18.45;47.47
78902;DHT22;68290;44.716;37.756;2023-03-03T22:00:40;18.48;47.48
78902;DHT22;68290;44.716;37.756;2023-03-03T22:01:43;18.45;47.46
78902;DHT22;68290;44.716;37.756;2023-03-03T22:02:44;18.47;47.47
78902;DHT22;68290;44.716;37.756;2023-03-03T22:03:45;18.48;47.48
78902;DHT22;68290;44.716;37.756;2023-03-03T22:04:47;18.48;47.46
78902;DHT22;68290;44.716;37.756;2023-03-03T22:05:48;18.47;47.48
78902;DHT22;68290;44.716;37.756;2023-03-03T22:06:49;18.47;47.46
78902;DHT22;68290;44.716;37.756;2023-03-03T22:07:52;18.47;47.44
78902;DHT22;68290;44.716;37.756;2023-03-03T22:08:54;18.45;47.43
78902;DHT22;68290;44.716;37.756;2023-03-03T22:09:55;18.47;47.39
78902;DHT22;68290;44.716;37.756;2023-03-03T22:10:56;18.47;47.43
78902;DHT22;68290;44.716;37.756;2023-03-03T22:11:58;18.44;47.47
78902;DHT22;68290;44.716;37.756;2023-03-03T22:12:59;18.47;47.46
78902;DHT22;68290;44.716;37.756;2023-03-03T22:14:01;18.45;47.43
78902;DHT22;68290;44.716;37.756;2023-03-03T22:15:02;18.45;47.39
78902;DHT22;68290;44.716;37.756;2023-03-03T22:16:04;18.44;47.39
78902;DHT22;68290;44.716;37.756;2023-03-03T22:17:07;18.44;47.35
78902;DHT22;68290;44.716;37.756;2023-03-03T22:18:10;18.44;47.32
78902;DHT22;68290;44.716;37.756;2023-03-03T22:19:11;18.45;47.39
78902;DHT22;68290;44.716;37.756;2023-03-03T22:20:13;18.43;47.43
78902;DHT22;68290;44.716;37.756;2023-03-03T22:21:15;18.45;47.35
78902;DHT22;68290;44.716;37.756;2023-03-03T22:22:16;18.44;47.34
78902;DHT22;68290;44.716;37.756;2023-03-03T22:23:18;18.44;47.35
78902;DHT22;68290;44.716;37.756;2023-03-03T22:24:19;18.43;47.43
78902;DHT22;68290;44.716;37.756;2023-03-03T22:25:20;18.45;47.41
78902;DHT22;68290;44.716;37.756;2023-03-03T22:26:22;18.45;47.35
78902;DHT22;68290;44.716;37.756;2023-03-03T22:27:23;18.45;47.32
78902;DHT22;68290;44.716;37.756;2023-03-03T22:28:25;18.44;47.38
78902;DHT22;68290;44.716;37.756;2023-03-03T22:29:28;18.47;47.34
78902;DHT22;68290;44.716;37.756;2023-03-03T22:30:30;18.44;47.37
78902;DHT22;68290;44.716;37.756;2023-03-03T22:31:31;18.45;47.35
78902;DHT22;68290;44.716;37.756;2023-03-03T22:32:33;18.43;47.34
78902;DHT22;68290;44.716;37.756;2023-03-03T22:33:34;18.44;47.33
78902;DHT22;68290;44.716;37.756;2023-03-03T22:34:35;18.45;47.36
78902;DHT22;68290;44.716;37.756;2023-03-03T22:35:37;18.44;47.34
78902;DHT22;68290;44.716;37.756;2023-03-03T22:36:38;18.44;47.32
78902;DHT22;68290;44.716;37.756;2023-03-03T22:37:39;18.44;47.37
78902;DHT22;68290;44.716;37.756;2023-03-03T22:38:41;18.44;47.34
78902;DHT22;68290;44.716;37.756;2023-03-03T22:39:42;18.44;47.30
78902;DHT22;68290;44.716;37.756;2023-03-03T22:40:44;18.43;47.32
78902;DHT22;68290;44.716;37.756;2023-03-03T22:41:45;18.44;47.31
78902;DHT22;68290;44.716;37.756;2023-03-03T22:42:46;18.45;47.31
78902;DHT22;68290;44.716;37.756;2023-03-03T22:43:47;18.45;47.26
78902;DHT22;68290;44.716;37.756;2023-03-03T22:44:49;18.44;47.29
78902;DHT22;68290;44.716;37.756;2023-03-03T22:45:50;18.44;47.28
78902;DHT22;68290;44.716;37.756;2023-03-03T22:46:51;18.45;47.28
78902;DHT22;68290;44.716;37.756;2023-03-03T22:47:53;18.43;47.26
78902;DHT22;68290;44.716;37.756;2023-03-03T22:48:54;18.45;47.26
78902;DHT22;68290;44.716;37.756;2023-03-03T22:49:55;18.43;47.31
78902;DHT22;68290;44.716;37.756;2023-03-03T22:50:57;18.41;47.25
78902;DHT22;68290;44.716;37.756;2023-03-03T22:51:58;18.41;47.28
78902;DHT22;68290;44.716;37.756;2023-03-03T22:53:00;18.44;47.30
78902;DHT22;68290;44.716;37.756;2023-03-03T22:54:02;18.43;47.27
78902;DHT22;68290;44.716;37.756;2023-03-03T22:55:03;18.43;47.30
78902;DHT22;68290;44.716;37.756;2023-03-03T22:56:05;18.44;47.30
78902;DHT22;68290;44.716;37.756;2023-03-03T22:57:07;18.44;47.34
78902;DHT22;68290;44.716;37.756;2023-03-03T22:58:08;18.43;47.27
78902;DHT22;68290;44.716;37.756;2023-03-03T22:59:10;18.43;47.29
78902;DHT22;68290;44.716;37.756;2023-03-03T23:00:12;18.43;47.28
78902;DHT22;68290;44.716;37.756;2023-03-03T23:01:13;18.43;47.34
78902;DHT22;68290;44.716;37.756;2023-03-03T23:02:15;18.41;47.32
78902;DHT22;68290;44.716;37.756;2023-03-03T23:03:16;18.44;47.39
78902;DHT22;68290;44.716;37.756;2023-03-03T23:04:17;18.40;47.29
78902;DHT22;68290;44.716;37.756;2023-03-03T23:05:19;18.41;47.29
78902;DHT22;68290;44.716;37.756;2023-03-03T23:06:20;18.43;47.28
78902;DHT22;68290;44.716;37.756;2023-03-03T23:07:21;18.43;47.24
78902;DHT22;68290;44.716;37.756;2023-03-03T23:08:22;18.41;47.27
78902;DHT22;68290;44.716;37.756;2023-03-03T23:09:24;18.43;47.28
78902;DHT22;68290;44.716;37.756;2023-03-03T23:10:26;18.43;47.34
78902;DHT22;68290;44.716;37.756;2023-03-03T23:11:27;18.43;47.34
78902;DHT22;68290;44.716;37.756;2023-03-03T23:12:29;18.41;47.32
78902;DHT22;68290;44.716;37.756;2023-03-03T23:13:30;18.43;47.34
78902;DHT22;68290;44.716;37.756;2023-03-03T23:14:32;18.41;47.32
78902;DHT22;68290;44.716;37.756;2023-03-03T23:15:34;18.41;47.28
78902;DHT22;68290;44.716;37.756;2023-03-03T23:16:35;18.40;47.27
78902;DHT22;68290;44.716;37.756;2023-03-03T23:17:46;18.41;47.31
78902;DHT22;68290;44.716;37.756;2023-03-03T23:18:47;18.41;47.32
78902;DHT22;68290;44.716;37.756;2023-03-03T23:19:49;18.40;47.35
78902;DHT22;68290;44.716;37.756;2023-03-03T23:20:50;18.41;47.26
78902;DHT22;68290;44.716;37.756;2023-03-03T23:21:52;18.40;47.29
78902;DHT22;68290;44.716;37.756;2023-03-03T23:22:53;18.43;47.23
78902;DHT22;68290;44.716;37.756;2023-03-03T23:23:55;18.40;47.29
78902;DHT22;68290;44.716;37.756;2023-03-03T23:24:56;18.43;47.32
78902;DHT22;68290;44.716;37.756;2023-03-03T23:25:58;18.37;47.23
78902;DHT22;68290;44.716;37.756;2023-03-03T23:26:59;18.41;47.25
78902;DHT22;68290;44.716;37.756;2023-03-03T23:28:01;18.40;47.38
78902;DHT22;68290;44.716;37.756;2023-03-03T23:29:03;18.37;47.27
78902;DHT22;68290;44.716;37.756;2023-03-03T23:30:06;18.40;47.32
78902;DHT22;68290;44.716;37.756;2023-03-03T23:31:08;18.40;47.34
78902;DHT22;68290;44.716;37.756;2023-03-03T23:32:09;18.38;47.27
78902;DHT22;68290;44.716;37.756;2023-03-03T23:33:11;18.40;47.32
78902;DHT22;68290;44.716;37.756;2023-03-03T23:34:12;18.41;47.26
78902;DHT22;68290;44.716;37.756;2023-03-03T23:35:14;18.38;47.25
78902;DHT22;68290;44.716;37.756;2023-03-03T23:36:16;18.38;47.29
78902;DHT22;68290;44.716;37.756;2023-03-03T23:37:18;18.38;47.26
78902;DHT22;68290;44.716;37.756;2023-03-03T23:38:19;18.37;47.30
78902;DHT22;68290;44.716;37.756;2023-03-03T23:39:21;18.38;47.29
78902;DHT22;68290;44.716;37.756;2023-03-03T23:40:23;18.36;47.30
78902;DHT22;68290;44.716;37.756;2023-03-03T23:41:24;18.38;47.26
78902;DHT22;68290;44.716;37.756;2023-03-03T23:42:26;18.38;47.24
78902;DHT22;68290;44.716;37.756;2023-03-03T23:43:30;18.38;47.30
78902;DHT22;68290;44.716;37.756;2023-03-03T23:44:33;18.37;47.23
78902;DHT22;68290;44.716;37.756;2023-03-03T23:45:35;18.40;47.24
78902;DHT22;68290;44.716;37.756;2023-03-03T23:46:36;18.37;47.31
78902;DHT22;68290;44.716;37.756;2023-03-03T23:47:40;18.40;47.30
78902;DHT22;68290;44.716;37.756;2023-03-03T23:48:41;18.37;47.29
78902;DHT22;68290;44.716;37.756;2023-03-03T23:49:42;18.36;47.24
78902;DHT22;68290;44.716;37.756;2023-03-03T23:50:44;18.37;47.29
78902;DHT22;68290;44.716;37.756;2023-03-03T23:51:46;18.37;47.26
78902;DHT22;68290;44.716;37.756;2023-03-03T23:52:47;18.37;47.25
78902;DHT22;68290;44.716;37.756;2023-03-03T23:53:49;18.37;47.20